Time;durP1;ratioP1;P1;durP2;ratioP2;P2;SDS_P1;SDS_P2;PMS_P1;PMS_P2;Temp;Humidity;BMP_temperature;BMP_pressure;BME280_temperature;BME280_humidity;BME280_pressure;Samples;Min_cycle;Max_cycle;Signal;HPM_P1;HPM_P2
2022/04/17 00:00:31;;;;;;;4.53;2.88;;;20.20;61.20;;;;;;4989592;28;87963;-82
2022/04/17 00:02:56;;;;;;;3.88;2.95;;;20.20;61.20;;;;;;4993071;28;90758;-83
2022/04/17 00:05:22;;;;;;;4.95;2.90;;;20.20;61.10;;;;;;4987443;28;88079;-80
2022/04/17 00:07:48;;;;;;;2.92;2.35;;;20.20;61.00;;;;;;4984995;28;87006;-80
2022/04/17 00:10:14;;;;;;;5.40;3.17;;;20.20;60.80;;;;;;4988057;28;86322;-84
2022/04/17 00:12:40;;;;;;;3.95;2.85;;;20.10;60.90;;;;;;4992217;28;90823;-81
2022/04/17 00:15:09;;;;;;;3.72;2.88;;;20.10;60.80;;;;;;4994449;28;90752;-80
2022/04/17 00:17:42;;;;;;;4.40;3.10;;;20.10;60.70;;;;;;4986746;28;88450;-81
2022/04/17 00:20:13;;;;;;;4.05;2.63;;;20.10;60.70;;;;;;4989420;28;89901;-81
2022/04/17 00:22:39;;;;;;;4.35;3.03;;;20.20;60.80;;;;;;4986730;28;88211;-81
2022/04/17 00:25:07;;;;;;;4.13;2.85;;;20.10;60.70;;;;;;4993216;28;90368;-86
2022/04/17 00:27:33;;;;;;;3.47;3.15;;;20.10;60.50;;;;;;4988421;28;87708;-82
2022/04/17 00:29:59;;;;;;;3.83;2.92;;;20.10;60.70;;;;;;4987227;28;87386;-81
2022/04/17 00:32:24;;;;;;;4.20;2.75;;;20.10;60.70;;;;;;4988241;28;87662;-81
2022/04/17 00:34:50;;;;;;;3.35;2.60;;;20.10;60.80;;;;;;4990429;28;89610;-84
2022/04/17 00:37:15;;;;;;;3.95;2.97;;;20.10;60.50;;;;;;4987488;28;87091;-87
2022/04/17 00:39:41;;;;;;;2.95;2.53;;;20.10;60.50;;;;;;4992342;28;89672;-80
2022/04/17 00:42:09;;;;;;;5.13;3.05;;;20.10;60.50;;;;;;4983069;28;92532;-81
2022/04/17 00:44:35;;;;;;;3.75;2.70;;;20.10;60.60;;;;;;4992862;28;91373;-79
2022/04/17 00:47:01;;;;;;;3.78;3.10;;;20.10;61.10;;;;;;4989003;28;87728;-80
2022/04/17 00:49:26;;;;;;;4.47;2.80;;;20.10;60.50;;;;;;4993211;28;88384;-80
2022/04/17 00:51:52;;;;;;;4.60;3.03;;;20.10;60.40;;;;;;4985419;28;87866;-80
2022/04/17 00:54:28;;;;;;;3.35;2.67;;;20.10;60.40;;;;;;4984315;28;89781;-81
2022/04/17 00:56:57;;;;;;;3.60;2.80;;;20.10;60.30;;;;;;4985287;28;86873;-83
2022/04/17 00:59:24;;;;;;;3.65;2.47;;;20.10;60.50;;;;;;4983779;28;86435;-80
2022/04/17 01:01:49;;;;;;;3.95;2.95;;;20.10;60.50;;;;;;4986652;28;88470;-82
2022/04/17 01:04:16;;;;;;;4.25;3.05;;;20.00;60.30;;;;;;4987149;28;87640;-82
2022/04/17 01:06:42;;;;;;;3.28;2.45;;;20.10;60.20;;;;;;4987183;28;88665;-80
2022/04/17 01:09:08;;;;;;;3.78;2.58;;;20.00;60.30;;;;;;4989077;28;87924;-80
2022/04/17 01:11:40;;;;;;;3.38;2.55;;;20.00;60.40;;;;;;4986245;28;88162;-81
2022/04/17 01:14:08;;;;;;;3.15;2.33;;;20.00;60.40;;;;;;4986821;28;87831;-83
2022/04/17 01:16:36;;;;;;;2.90;2.30;;;20.00;60.90;;;;;;4984529;28;87003;-81
2022/04/17 01:19:10;;;;;;;3.60;2.65;;;20.00;60.20;;;;;;4992912;28;88251;-88
2022/04/17 01:21:36;;;;;;;3.38;2.80;;;20.00;60.10;;;;;;4992434;28;89756;-86
2022/04/17 01:27:00;;;;;;;3.17;2.50;;;20.00;60.30;;;;;;4988207;28;87787;-85
2022/04/17 01:29:37;;;;;;;3.60;2.70;;;20.00;60.30;;;;;;4984884;28;87006;-83
2022/04/17 01:32:05;;;;;;;3.90;2.92;;;20.00;60.30;;;;;;4988207;28;89436;-83
2022/04/17 01:34:31;;;;;;;2.70;2.50;;;20.00;60.20;;;;;;4988253;28;90047;-84
2022/04/17 01:36:58;;;;;;;3.00;2.47;;;20.00;60.10;;;;;;4987359;28;87447;-87
2022/04/17 01:39:23;;;;;;;3.35;2.53;;;20.00;60.30;;;;;;4992711;28;90146;-83
2022/04/17 01:41:50;;;;;;;3.50;2.78;;;20.00;60.30;;;;;;4984789;28;87656;-81
2022/04/17 01:44:16;;;;;;;2.88;2.47;;;20.00;60.20;;;;;;4987635;28;87722;-81
2022/04/17 01:46:45;;;;;;;2.92;2.45;;;20.00;60.20;;;;;;4986607;28;87440;-83
2022/04/17 01:49:12;;;;;;;3.43;2.30;;;20.00;60.00;;;;;;4986773;28;86365;-81
2022/04/17 01:51:39;;;;;;;3.50;2.40;;;20.00;60.20;;;;;;4984862;28;87795;-81
2022/04/17 01:54:07;;;;;;;2.92;2.40;;;19.90;59.90;;;;;;4983618;28;87795;-80
2022/04/17 01:56:34;;;;;;;3.70;2.40;;;19.90;60.00;;;;;;4984600;28;88785;-82
2022/04/17 01:59:00;;;;;;;3.65;2.70;;;19.90;60.00;;;;;;4983868;28;87447;-83
2022/04/17 02:01:25;;;;;;;2.92;2.20;;;19.90;60.10;;;;;;4985611;28;87005;-83
2022/04/17 02:03:51;;;;;;;3.40;2.45;;;19.90;60.10;;;;;;4987077;28;87020;-88
2022/04/17 02:06:17;;;;;;;5.95;2.80;;;19.90;60.10;;;;;;4990118;28;87720;-84
2022/04/17 02:08:44;;;;;;;3.33;2.63;;;19.90;60.00;;;;;;4986170;28;87876;-86
2022/04/17 02:11:10;;;;;;;3.33;2.53;;;19.90;60.10;;;;;;4985135;28;88020;-87
2022/04/17 02:13:36;;;;;;;2.80;2.35;;;19.90;60.10;;;;;;4986086;28;87353;-88
2022/04/17 02:16:02;;;;;;;2.58;2.30;;;19.90;60.20;;;;;;4984209;28;87549;-86
2022/04/17 02:18:28;;;;;;;2.13;1.92;;;19.90;60.10;;;;;;4985468;28;87257;-87
2022/04/17 02:20:54;;;;;;;2.90;2.50;;;19.90;60.00;;;;;;4991212;28;91331;-81
2022/04/17 02:23:20;;;;;;;2.88;2.20;;;19.90;60.20;;;;;;4992963;28;89172;-82
2022/04/17 02:25:45;;;;;;;3.10;2.40;;;19.90;60.00;;;;;;4988738;28;87732;-85
2022/04/17 02:28:16;;;;;;;2.50;2.22;;;19.90;60.00;;;;;;4985389;28;87243;-83
2022/04/17 02:30:42;;;;;;;2.63;2.30;;;19.90;59.90;;;;;;4991439;28;90906;-85
2022/04/17 02:33:08;;;;;;;3.55;2.30;;;19.90;60.00;;;;;;4986145;28;87771;-87
2022/04/17 02:35:34;;;;;;;2.85;2.40;;;19.90;59.80;;;;;;4983832;28;87614;-86
2022/04/17 02:38:00;;;;;;;2.50;2.28;;;19.80;59.80;;;;;;4987437;28;86890;-80
2022/04/17 02:40:26;;;;;;;3.05;2.35;;;19.80;59.80;;;;;;4984824;28;87044;-79
2022/04/17 02:42:54;;;;;;;2.92;2.47;;;19.90;59.70;;;;;;4985038;28;88614;-82
2022/04/17 02:45:20;;;;;;;2.90;2.25;;;19.80;59.60;;;;;;4987258;28;87891;-87
2022/04/17 02:47:48;;;;;;;3.47;2.17;;;19.80;59.60;;;;;;4985198;28;87618;-81
2022/04/17 02:50:15;;;;;;;3.00;2.30;;;19.80;59.60;;;;;;4984436;28;86979;-79
2022/04/17 02:52:42;;;;;;;2.60;2.30;;;19.80;59.60;;;;;;4986832;28;87356;-85
2022/04/17 02:55:08;;;;;;;3.13;2.03;;;19.80;59.60;;;;;;4986445;28;88031;-83
2022/04/17 02:57:34;;;;;;;2.15;1.92;;;19.80;59.60;;;;;;4992294;28;88020;-84
2022/04/17 03:00:01;;;;;;;3.33;2.17;;;19.80;59.60;;;;;;4987891;28;88332;-82
2022/04/17 03:07:57;;;;;;;2.97;2.25;;;19.70;59.50;;;;;;4990757;28;87114;-83
2022/04/17 03:10:23;;;;;;;3.20;2.40;;;19.80;59.50;;;;;;4988313;28;88470;-80
2022/04/17 03:12:49;;;;;;;3.20;2.03;;;19.80;59.60;;;;;;4991627;28;88721;-84
2022/04/17 03:15:14;;;;;;;3.13;2.20;;;19.80;59.60;;;;;;4990330;28;87317;-82
2022/04/17 03:17:40;;;;;;;2.42;2.10;;;19.80;59.60;;;;;;4989336;28;87718;-85
2022/04/17 03:20:07;;;;;;;2.95;2.15;;;19.70;59.40;;;;;;4989293;28;87820;-79
2022/04/17 03:22:33;;;;;;;2.63;2.33;;;19.80;59.30;;;;;;4986726;28;88110;-85
2022/04/17 03:25:04;;;;;;;3.20;2.78;;;19.70;59.40;;;;;;4986751;28;87822;-81
2022/04/17 03:27:33;;;;;;;2.50;2.30;;;19.70;59.40;;;;;;4985876;28;87790;-82
2022/04/17 03:30:02;;;;;;;3.43;2.10;;;19.70;59.30;;;;;;4987887;28;87892;-87
2022/04/17 03:32:28;;;;;;;2.30;2.10;;;19.70;59.30;;;;;;4985352;28;89702;-82
2022/04/17 03:34:54;;;;;;;2.63;2.05;;;19.70;59.30;;;;;;4985214;28;88243;-83
2022/04/17 03:37:20;;;;;;;2.95;2.22;;;19.70;59.20;;;;;;4985739;28;87463;-84
2022/04/17 03:39:46;;;;;;;2.15;1.95;;;19.70;59.20;;;;;;4988367;28;88507;-81
2022/04/17 03:42:12;;;;;;;2.28;2.03;;;19.70;59.20;;;;;;4989219;28;87669;-81
2022/04/17 03:44:38;;;;;;;2.30;1.90;;;19.70;59.20;;;;;;4990581;28;87040;-81
2022/04/17 03:47:06;;;;;;;3.33;2.20;;;19.70;59.20;;;;;;4992309;28;86966;-80
2022/04/17 03:49:32;;;;;;;2.63;2.40;;;19.70;59.20;;;;;;4984734;28;87941;-79
2022/04/17 03:51:58;;;;;;;2.00;1.70;;;19.70;59.20;;;;;;4988552;28;86794;-81
2022/04/17 03:54:24;;;;;;;2.40;2.00;;;19.70;59.20;;;;;;4990708;28;86961;-83
2022/04/17 03:56:50;;;;;;;2.33;1.90;;;19.70;59.20;;;;;;4990721;28;87435;-85
2022/04/17 03:59:15;;;;;;;2.30;1.95;;;19.70;59.20;;;;;;4986048;28;88081;-82
2022/04/17 04:01:41;;;;;;;2.58;1.90;;;19.70;59.10;;;;;;4984855;28;90858;-82
2022/04/17 04:04:06;;;;;;;2.65;1.98;;;19.70;59.30;;;;;;4986836;28;87415;-83
2022/04/17 04:06:33;;;;;;;2.30;1.90;;;19.60;58.90;;;;;;4985587;28;87821;-85
2022/04/17 04:08:58;;;;;;;2.63;2.03;;;19.60;59.00;;;;;;4986954;28;87017;-81
2022/04/17 04:11:24;;;;;;;2.75;1.90;;;19.60;59.20;;;;;;4991886;28;87494;-85
2022/04/17 04:13:50;;;;;;;2.45;2.03;;;19.60;59.00;;;;;;4987697;28;88005;-80
2022/04/17 04:16:21;;;;;;;2.15;1.95;;;19.60;59.00;;;;;;4987772;28;86893;-84
2022/04/17 04:18:46;;;;;;;2.90;2.30;;;19.60;59.00;;;;;;4988069;28;88545;-84
2022/04/17 04:21:12;;;;;;;2.28;2.00;;;19.60;59.10;;;;;;4986332;28;87270;-85
2022/04/17 04:23:38;;;;;;;2.83;2.00;;;19.60;59.00;;;;;;4994291;28;88439;-88
2022/04/17 04:26:04;;;;;;;2.55;2.15;;;19.60;59.00;;;;;;4988882;28;86978;-88
2022/04/17 04:28:36;;;;;;;2.58;2.15;;;19.60;58.90;;;;;;4986756;28;88095;-83
2022/04/17 04:31:11;;;;;;;2.45;1.90;;;19.60;58.90;;;;;;4994712;28;88906;-81
2022/04/17 04:33:38;;;;;;;2.53;2.08;;;19.60;59.00;;;;;;4988318;28;87309;-86
2022/04/17 04:36:06;;;;;;;3.03;2.30;;;19.60;58.90;;;;;;4989524;28;87192;-81
2022/04/17 04:38:32;;;;;;;2.05;1.80;;;19.60;58.90;;;;;;4988090;28;88297;-82
2022/04/17 04:41:01;;;;;;;2.90;1.70;;;19.60;58.90;;;;;;4983378;28;87224;-84
2022/04/17 04:43:27;;;;;;;1.90;1.70;;;19.60;58.80;;;;;;4988817;28;87622;-82
2022/04/17 04:46:08;;;;;;;2.60;1.80;;;19.60;58.90;;;;;;4988956;28;87468;-84
2022/04/17 04:51:23;;;;;;;2.90;2.10;;;19.60;58.80;;;;;;4984223;28;87759;-83
2022/04/17 04:53:49;;;;;;;2.97;1.90;;;19.60;58.80;;;;;;4985906;28;87000;-84
2022/04/17 04:56:18;;;;;;;2.55;2.10;;;19.50;58.80;;;;;;4987278;28;88431;-82
2022/04/17 04:58:45;;;;;;;2.20;2.00;;;19.60;58.80;;;;;;4981312;28;90446;-84
2022/04/17 05:01:12;;;;;;;2.78;1.77;;;19.60;59.40;;;;;;4983329;28;89193;-82
2022/04/17 05:03:38;;;;;;;5.93;1.88;;;19.60;58.80;;;;;;4987707;28;87955;-84
2022/04/17 05:06:06;;;;;;;5.10;1.98;;;19.60;58.50;;;;;;4984482;28;89756;-84
2022/04/17 05:08:34;;;;;;;8.75;1.90;;;19.60;57.60;;;;;;4986586;28;87431;-80
2022/04/17 05:11:00;;;;;;;5.28;2.17;;;19.60;57.10;;;;;;4990787;28;90015;-80
2022/04/17 05:13:25;;;;;;;4.93;1.60;;;19.60;57.10;;;;;;4982377;28;88493;-79
2022/04/17 05:15:52;;;;;;;4.28;1.92;;;19.60;58.70;;;;;;4985549;28;86900;-83
2022/04/17 05:18:18;;;;;;;2.25;1.77;;;19.60;58.50;;;;;;4989774;28;88136;-83
2022/04/17 05:20:44;;;;;;;2.58;1.80;;;19.60;58.80;;;;;;4984205;28;87977;-81
2022/04/17 05:23:26;;;;;;;7.35;2.30;;;19.60;59.00;;;;;;4985461;28;87360;-80
2022/04/17 05:26:00;;;;;;;3.65;2.13;;;19.60;59.20;;;;;;4985497;28;86985;-81
2022/04/17 05:28:28;;;;;;;3.45;2.15;;;19.60;59.40;;;;;;4984300;28;87013;-85
2022/04/17 05:30:54;;;;;;;3.25;2.03;;;19.70;59.40;;;;;;4988086;28;87740;-79
2022/04/17 05:33:21;;;;;;;4.40;2.00;;;19.70;59.40;;;;;;4991564;28;87685;-82
2022/04/17 05:35:57;;;;;;;6.40;2.30;;;19.70;59.40;;;;;;4987076;28;87515;-84
2022/04/17 05:38:26;;;;;;;3.78;2.10;;;19.70;59.30;;;;;;4980987;28;89878;-80
2022/04/17 05:40:52;;;;;;;5.43;1.92;;;19.70;59.30;;;;;;4983931;28;90745;-83
2022/04/17 05:43:19;;;;;;;8.52;1.80;;;19.70;59.40;;;;;;4986989;28;87028;-80
2022/04/17 05:45:46;;;;;;;5.88;2.10;;;19.70;59.40;;;;;;4986155;28;88030;-80
2022/04/17 05:48:12;;;;;;;4.15;2.10;;;19.70;59.60;;;;;;4985351;28;87631;-82
2022/04/17 05:50:38;;;;;;;6.22;2.22;;;19.70;59.50;;;;;;4984327;28;87896;-80
2022/04/17 05:53:04;;;;;;;5.28;2.38;;;19.70;59.40;;;;;;4984845;28;87568;-82
2022/04/17 05:55:31;;;;;;;5.60;2.00;;;19.80;59.60;;;;;;4990704;28;88996;-81
2022/04/17 05:57:57;;;;;;;2.70;1.75;;;19.70;59.40;;;;;;4984663;28;87672;-81
2022/04/17 06:00:23;;;;;;;3.28;1.92;;;19.80;59.70;;;;;;4991360;28;89709;-83
2022/04/17 06:02:49;;;;;;;3.60;1.65;;;19.80;59.70;;;;;;4986520;28;87936;-84
2022/04/17 06:05:16;;;;;;;4.55;1.85;;;19.80;59.80;;;;;;4985672;28;89261;-86
2022/04/17 06:07:42;;;;;;;2.67;1.83;;;19.80;60.00;;;;;;4985311;28;88477;-79
2022/04/17 06:10:10;;;;;;;3.13;1.70;;;19.80;59.80;;;;;;4983360;28;87845;-81
2022/04/17 06:12:37;;;;;;;2.15;1.83;;;19.80;59.80;;;;;;5042329;22;88632;-84
2022/04/17 06:15:10;;;;;;;2.70;1.73;;;19.80;59.80;;;;;;5028843;28;87188;-84
2022/04/17 06:17:40;;;;;;;4.80;2.05;;;19.80;59.70;;;;;;5024466;27;87875;-84
2022/04/17 06:20:08;;;;;;;2.33;1.60;;;19.80;59.60;;;;;;5016201;28;87360;-84
2022/04/17 06:22:35;;;;;;;2.17;1.80;;;19.90;59.40;;;;;;5017477;28;87485;-85
2022/04/17 06:25:03;;;;;;;3.95;1.98;;;19.90;59.50;;;;;;5015914;28;86967;-84
2022/04/17 06:27:39;;;;;;;15.55;3.80;;;19.90;59.50;;;;;;5013720;28;91569;-85
2022/04/17 06:30:16;;;;;;;31.88;7.85;;;19.90;59.50;;;;;;5015137;28;88084;-85
2022/04/17 06:32:42;;;;;;;48.75;9.00;;;19.90;59.90;;;;;;5016916;28;87139;-84
2022/04/17 06:35:09;;;;;;;33.72;7.97;;;19.90;60.80;;;;;;5020049;28;87073;-84
2022/04/17 06:37:58;;;;;;;35.95;7.30;;;19.90;59.60;;;;;;5018096;28;88187;-84
2022/04/17 06:40:26;;;;;;;30.95;7.50;;;19.90;60.90;;;;;;5016868;28;90381;-85
2022/04/17 06:42:54;;;;;;;32.95;7.72;;;19.90;60.70;;;;;;5015727;28;87228;-84
2022/04/17 06:45:21;;;;;;;30.13;7.43;;;19.90;60.80;;;;;;5018344;28;86580;-85
2022/04/17 06:47:47;;;;;;;33.58;8.40;;;20.00;60.90;;;;;;5018617;28;87719;-85
2022/04/17 06:50:14;;;;;;;30.55;7.30;;;20.00;60.90;;;;;;5018616;28;87701;-85
2022/04/17 06:52:39;;;;;;;25.00;7.45;;;20.00;61.10;;;;;;5022310;28;88774;-86
2022/04/17 06:55:08;;;;;;;32.67;8.50;;;20.00;61.10;;;;;;5018651;28;86881;-84
2022/04/17 06:57:34;;;;;;;32.97;7.88;;;20.00;61.20;;;;;;5017745;28;88216;-83
2022/04/17 07:00:05;;;;;;;31.77;7.53;;;20.00;61.10;;;;;;5020005;28;87379;-85
2022/04/17 07:02:30;;;;;;;28.42;8.23;;;20.00;60.50;;;;;;5019086;28;87531;-84
2022/04/17 07:04:56;;;;;;;37.17;7.97;;;20.00;60.30;;;;;;5018595;28;86959;-84
2022/04/17 07:07:27;;;;;;;32.92;7.72;;;20.00;60.60;;;;;;5018131;28;87032;-85
2022/04/17 07:09:54;;;;;;;33.10;7.82;;;20.00;59.30;;;;;;5017120;28;87408;-85
2022/04/17 07:12:20;;;;;;;34.28;8.07;;;20.00;58.70;;;;;;5016356;28;87030;-85
2022/04/17 07:14:47;;;;;;;34.65;9.02;;;20.00;58.20;;;;;;5017215;28;87694;-83
2022/04/17 07:17:13;;;;;;;28.67;7.32;;;20.00;58.40;;;;;;5016738;28;88445;-84
2022/04/17 07:19:39;;;;;;;26.55;7.38;;;20.00;58.60;;;;;;5016632;28;88768;-86
2022/04/17 07:22:05;;;;;;;29.58;7.50;;;20.00;58.60;;;;;;5015930;28;87641;-85
2022/04/17 07:24:30;;;;;;;23.10;7.07;;;20.00;58.70;;;;;;5016813;28;88093;-85
2022/04/17 07:26:56;;;;;;;28.58;7.40;;;20.00;58.10;;;;;;5018507;28;87843;-86
2022/04/17 07:29:23;;;;;;;35.10;7.32;;;20.00;58.60;;;;;;4997493;27;87529;-89
2022/04/17 07:31:53;;;;;;;29.90;6.65;;;20.10;58.80;;;;;;5022364;28;87253;-91
2022/04/17 07:34:19;;;;;;;27.15;6.70;;;20.10;58.60;;;;;;5025035;28;86922;-89
2022/04/17 07:36:52;;;;;;;28.40;7.20;;;20.10;59.00;;;;;;5018815;28;90598;-85
2022/04/17 07:39:18;;;;;;;21.17;7.32;;;20.10;59.60;;;;;;5018960;28;87775;-89
2022/04/17 07:42:00;;;;;;;21.13;8.00;;;20.10;60.10;;;;;;5021852;28;88549;-88
2022/04/17 07:44:29;;;;;;;28.38;7.65;;;20.10;60.80;;;;;;5018450;28;87284;-89
2022/04/17 07:46:55;;;;;;;31.08;7.68;;;20.10;61.50;;;;;;5020616;28;87641;-93
2022/04/17 07:49:21;;;;;;;20.70;7.00;;;20.10;62.20;;;;;;5020282;28;87797;-91
2022/04/17 07:51:46;;;;;;;27.10;7.30;;;20.10;63.10;;;;;;5019220;28;87648;-87
2022/04/17 07:54:12;;;;;;;34.22;8.68;;;20.20;64.20;;;;;;5018565;28;87731;-88
2022/04/17 07:56:38;;;;;;;31.27;8.30;;;20.20;65.50;;;;;;5019061;28;87643;-89
2022/04/17 07:59:04;;;;;;;23.85;8.05;;;20.20;64.70;;;;;;5018243;28;86927;-90
2022/04/17 08:01:33;;;;;;;21.75;7.70;;;20.20;64.00;;;;;;5018688;28;87748;-87
2022/04/17 08:03:58;;;;;;;31.60;7.78;;;20.20;63.80;;;;;;5018844;28;87432;-83
2022/04/17 08:06:24;;;;;;;23.35;7.38;;;20.20;64.00;;;;;;5017129;28;88497;-86
2022/04/17 08:08:51;;;;;;;23.02;6.60;;;20.20;64.00;;;;;;5018225;28;87921;-84
2022/04/17 08:11:18;;;;;;;24.42;7.93;;;20.20;63.70;;;;;;5019561;28;87688;-89
2022/04/17 08:13:46;;;;;;;21.42;6.43;;;20.20;63.50;;;;;;5016815;28;87145;-90
2022/04/17 08:16:20;;;;;;;27.10;7.18;;;20.20;63.20;;;;;;5016976;28;90561;-88
2022/04/17 08:18:45;;;;;;;22.70;6.47;;;20.20;63.10;;;;;;5019145;28;87860;-86
2022/04/17 08:21:12;;;;;;;23.95;7.65;;;20.30;62.80;;;;;;5016493;28;87934;-89
2022/04/17 08:23:37;;;;;;;25.27;8.00;;;20.30;63.00;;;;;;5016220;28;86938;-88
2022/04/17 08:26:05;;;;;;;28.48;7.22;;;20.30;62.60;;;;;;5025643;28;87511;-88
2022/04/17 08:28:31;;;;;;;19.10;6.40;;;20.30;62.60;;;;;;5020454;28;87603;-90
2022/04/17 08:30:57;;;;;;;18.27;6.72;;;20.30;62.60;;;;;;5020136;28;88401;-86
2022/04/17 08:33:32;;;;;;;24.38;6.85;;;20.20;62.60;;;;;;5021452;28;87818;-85
2022/04/17 08:35:59;;;;;;;24.15;7.63;;;20.20;62.50;;;;;;5018431;28;87032;-86
2022/04/17 08:38:25;;;;;;;20.75;6.97;;;20.30;62.50;;;;;;5017397;28;87016;-86
2022/04/17 08:40:52;;;;;;;25.88;7.45;;;20.30;62.40;;;;;;5018860;28;87162;-85
2022/04/17 08:43:21;;;;;;;18.88;6.68;;;20.30;62.60;;;;;;5018980;28;86839;-87
2022/04/17 08:45:51;;;;;;;23.90;5.95;;;20.30;62.70;;;;;;5016844;28;90601;-87
2022/04/17 08:48:17;;;;;;;22.35;6.82;;;20.30;62.60;;;;;;5017143;28;88817;-86
2022/04/17 08:50:43;;;;;;;21.13;6.32;;;20.30;62.90;;;;;;5019481;28;86912;-93
2022/04/17 08:53:13;;;;;;;19.85;6.25;;;20.30;58.90;;;;;;5018969;28;87596;-88
2022/04/17 08:55:39;;;;;;;15.70;5.95;;;20.30;60.60;;;;;;5015112;28;91351;-91
2022/04/17 08:58:05;;;;;;;20.85;6.90;;;20.30;61.60;;;;;;5025253;28;91409;-92
2022/04/17 09:00:31;;;;;;;20.95;6.30;;;20.30;61.40;;;;;;5020075;28;87208;-87
2022/04/17 09:02:56;;;;;;;19.20;6.07;;;20.30;61.40;;;;;;5019537;28;87095;-94
2022/04/17 09:05:22;;;;;;;19.00;6.63;;;20.30;61.40;;;;;;5019403;28;87863;-89
2022/04/17 09:07:53;;;;;;;33.13;6.80;;;20.30;61.60;;;;;;5019488;28;86987;-93
2022/04/17 09:10:30;;;;;;;19.83;5.38;;;20.30;61.60;;;;;;5020465;28;87251;-88
2022/04/17 09:13:00;;;;;;;21.58;6.40;;;20.30;61.70;;;;;;5017680;28;86460;-93
2022/04/17 09:15:32;;;;;;;20.65;5.95;;;20.30;61.90;;;;;;5017833;28;87389;-92
2022/04/17 09:17:58;;;;;;;18.83;5.65;;;20.30;62.30;;;;;;5017649;28;87539;-92
2022/04/17 09:20:28;;;;;;;15.10;6.10;;;20.30;62.50;;;;;;5019666;28;88491;-94
2022/04/17 09:22:59;;;;;;;13.27;5.65;;;20.30;62.30;;;;;;5015572;28;87741;-91
2022/04/17 09:25:28;;;;;;;23.08;6.53;;;20.30;62.90;;;;;;5016604;28;90468;-94
2022/04/17 09:28:04;;;;;;;27.63;6.07;;;20.40;62.70;;;;;;5016214;28;89170;-88
2022/04/17 09:30:33;;;;;;;20.40;5.38;;;20.40;62.30;;;;;;5018520;28;88272;-93
2022/04/17 09:33:06;;;;;;;20.58;5.80;;;20.50;62.50;;;;;;5019754;28;86943;-89
2022/04/17 09:35:32;;;;;;;17.58;5.03;;;20.50;62.60;;;;;;5017771;28;87435;-93
2022/04/17 09:37:59;;;;;;;24.35;5.90;;;20.50;62.80;;;;;;5017812;28;87186;-91
2022/04/17 09:40:27;;;;;;;18.35;6.22;;;20.50;62.80;;;;;;5016934;28;87022;-94
2022/04/17 09:43:11;;;;;;;13.50;5.45;;;20.50;63.00;;;;;;5019846;28;87309;-92
2022/04/17 09:46:08;;;;;;;17.73;5.22;;;20.40;63.00;;;;;;5017703;28;89890;-91
2022/04/17 09:48:40;;;;;;;15.05;4.85;;;20.50;63.00;;;;;;5017004;28;92206;-92
2022/04/17 09:51:27;;;;;;;18.48;5.93;;;20.40;63.00;;;;;;5019931;28;87407;-92
2022/04/17 09:54:04;;;;;;;20.70;6.30;;;20.40;63.10;;;;;;5019227;28;87535;-90
2022/04/17 09:56:35;;;;;;;24.83;5.10;;;20.40;63.40;;;;;;5019422;28;87593;-91
2022/04/17 09:59:17;;;;;;;16.58;5.40;;;20.50;63.60;;;;;;5018474;28;86983;-89
2022/04/17 10:01:49;;;;;;;16.13;5.30;;;20.40;63.70;;;;;;5020215;28;87332;-91
2022/04/17 10:04:19;;;;;;;15.73;5.72;;;20.40;63.90;;;;;;5020050;28;86487;-89
2022/04/17 10:06:52;;;;;;;14.95;5.25;;;20.40;63.70;;;;;;5001125;28;88637;-84
2022/04/17 10:09:19;;;;;;;13.10;5.47;;;20.50;64.30;;;;;;5021658;28;87494;-90
2022/04/17 10:11:45;;;;;;;15.55;5.60;;;20.40;64.30;;;;;;5023124;28;88987;-87
2022/04/17 10:14:11;;;;;;;12.23;4.57;;;20.50;64.40;;;;;;5021768;28;88366;-94
2022/04/17 10:16:41;;;;;;;13.73;4.95;;;20.50;64.60;;;;;;5022440;28;88434;-89
2022/04/17 10:19:20;;;;;;;21.58;5.07;;;20.50;64.50;;;;;;5022948;28;87459;-91
2022/04/17 10:21:46;;;;;;;19.67;5.25;;;20.50;64.60;;;;;;5023232;28;87701;-93
2022/04/17 10:24:17;;;;;;;17.17;5.78;;;20.50;64.60;;;;;;5022098;28;87949;-90
2022/04/17 10:27:00;;;;;;;10.35;4.55;;;20.40;64.20;;;;;;5020233;28;90936;-90
2022/04/17 10:29:41;;;;;;;15.65;4.43;;;20.50;64.40;;;;;;5019997;28;86759;-88
2022/04/17 10:32:25;;;;;;;15.32;4.95;;;20.50;64.40;;;;;;5022223;28;88017;-91
2022/04/17 10:35:33;;;;;;;11.35;4.70;;;20.50;64.50;;;;;;5023930;28;87532;-86
2022/04/17 10:38:18;;;;;;;15.98;4.65;;;20.50;64.40;;;;;;4969400;28;88630;-92
2022/04/17 10:40:53;;;;;;;12.75;4.90;;;20.50;64.30;;;;;;5020994;28;91516;-89
2022/04/17 10:43:19;;;;;;;16.55;5.13;;;20.50;64.20;;;;;;5023637;28;87947;-93
2022/04/17 10:46:08;;;;;;;16.30;6.53;;;20.50;63.70;;;;;;5023970;28;87192;-89
2022/04/17 10:48:45;;;;;;;13.90;5.10;;;20.50;62.50;;;;;;5022149;28;87032;-87
2022/04/17 10:51:30;;;;;;;11.75;3.92;;;20.50;62.40;;;;;;5024128;28;86947;-89
2022/04/17 10:54:45;;;;;;;11.48;4.80;;;20.50;62.40;;;;;;5021164;28;88563;-91
2022/04/17 10:57:11;;;;;;;9.43;5.00;;;20.40;62.30;;;;;;5018032;28;86377;-92
2022/04/17 10:59:37;;;;;;;10.73;4.15;;;20.40;62.00;;;;;;5022424;28;87718;-90
2022/04/17 11:02:08;;;;;;;17.30;4.40;;;20.50;61.50;;;;;;5018480;28;88975;-88
2022/04/17 11:04:37;;;;;;;15.65;5.13;;;20.50;61.10;;;;;;5012163;28;88070;-91
2022/04/17 11:07:39;;;;;;;16.27;4.53;;;20.50;61.50;;;;;;5023813;28;87588;-93
2022/04/17 11:10:20;;;;;;;10.15;4.15;;;20.50;61.50;;;;;;5020585;28;89819;-89
2022/04/17 11:12:49;;;;;;;12.90;4.13;;;20.50;61.50;;;;;;5021687;28;90822;-91
2022/04/17 11:15:18;;;;;;;15.73;4.60;;;20.50;62.00;;;;;;5024889;28;86853;-91
2022/04/17 11:17:46;;;;;;;10.70;3.78;;;20.50;60.70;;;;;;5023107;28;86974;-90
2022/04/17 11:20:13;;;;;;;13.65;4.47;;;20.50;60.80;;;;;;5020914;28;87466;-92
2022/04/17 11:22:47;;;;;;;12.18;4.50;;;20.40;61.00;;;;;;5022578;28;87114;-89
2022/04/17 11:25:13;;;;;;;16.48;4.63;;;20.40;60.70;;;;;;5024626;28;87631;-90
2022/04/17 11:27:50;;;;;;;13.80;4.53;;;20.40;61.00;;;;;;5024927;28;86871;-90
2022/04/17 11:30:15;;;;;;;10.68;3.83;;;20.50;60.90;;;;;;5022387;28;89234;-91
2022/04/17 11:32:41;;;;;;;18.15;5.20;;;20.40;60.70;;;;;;5019342;28;87983;-92
2022/04/17 11:35:08;;;;;;;10.88;4.10;;;20.50;60.50;;;;;;5019715;28;86994;-91
2022/04/17 11:37:35;;;;;;;15.82;4.53;;;20.50;60.70;;;;;;5022885;28;87273;-87
2022/04/17 11:40:15;;;;;;;10.63;4.40;;;20.40;60.40;;;;;;5022024;28;89284;-90
2022/04/17 11:43:08;;;;;;;11.55;3.88;;;20.40;60.40;;;;;;5022406;28;87371;-88
2022/04/17 11:45:35;;;;;;;15.63;4.55;;;20.40;60.30;;;;;;5018638;28;87255;-90
2022/04/17 11:48:06;;;;;;;13.00;4.43;;;20.40;60.20;;;;;;5022144;28;86812;-89
2022/04/17 11:50:31;;;;;;;12.73;4.25;;;20.40;60.20;;;;;;5021249;28;91045;-93
2022/04/17 11:53:09;;;;;;;11.25;4.53;;;20.40;60.20;;;;;;5023241;28;86975;-92
2022/04/17 11:55:37;;;;;;;11.77;4.28;;;20.40;60.20;;;;;;5019162;28;89744;-90
2022/04/17 11:58:03;;;;;;;10.65;4.22;;;20.40;59.90;;;;;;5020010;28;87732;-90
2022/04/17 12:00:30;;;;;;;8.50;4.25;;;20.40;60.00;;;;;;5021385;28;87712;-93
2022/04/17 12:03:15;;;;;;;8.55;3.75;;;20.40;60.30;;;;;;5021102;28;87403;-92
2022/04/17 12:05:41;;;;;;;12.25;3.65;;;20.40;60.30;;;;;;5020784;28;87572;-89
2022/04/17 12:08:11;;;;;;;12.38;4.10;;;20.40;60.20;;;;;;5020919;28;87483;-93
2022/04/17 12:10:42;;;;;;;10.43;4.05;;;20.40;60.10;;;;;;5021052;28;87683;-94
2022/04/17 12:13:17;;;;;;;11.77;4.07;;;20.40;60.30;;;;;;5024923;28;88072;-92
2022/04/17 12:15:43;;;;;;;9.32;4.05;;;20.40;60.20;;;;;;5024647;28;87380;-93
2022/04/17 12:18:08;;;;;;;12.20;4.20;;;20.40;59.80;;;;;;5024722;28;87292;-91
2022/04/17 12:20:34;;;;;;;11.90;4.25;;;20.40;59.90;;;;;;5024602;28;87958;-92
2022/04/17 12:23:00;;;;;;;11.40;3.80;;;20.40;59.80;;;;;;5022319;28;87403;-84
2022/04/17 12:25:26;;;;;;;8.75;4.18;;;20.40;59.70;;;;;;5021831;28;86881;-88
2022/04/17 12:28:06;;;;;;;7.95;3.78;;;20.40;59.90;;;;;;5021253;28;86969;-94
2022/04/17 12:30:32;;;;;;;9.40;3.38;;;20.40;59.70;;;;;;5022438;28;87449;-94
2022/04/17 12:33:00;;;;;;;12.55;3.92;;;20.40;60.10;;;;;;5019642;28;87669;-85
2022/04/17 12:35:30;;;;;;;8.07;3.33;;;20.40;60.20;;;;;;5022367;28;87495;-89
2022/04/17 12:38:04;;;;;;;8.82;3.60;;;20.40;59.80;;;;;;5021285;28;86782;-93
2022/04/17 12:40:31;;;;;;;11.45;3.90;;;20.40;59.90;;;;;;5020402;28;87765;-92
2022/04/17 12:43:27;;;;;;;10.95;4.38;;;20.40;59.80;;;;;;5019732;28;88005;-91
2022/04/17 12:45:57;;;;;;;8.18;3.65;;;20.40;59.60;;;;;;5013919;28;87906;-86
2022/04/17 12:48:31;;;;;;;9.40;3.78;;;20.40;59.80;;;;;;5017101;28;86909;-86
2022/04/17 12:50:59;;;;;;;8.75;3.90;;;20.40;59.80;;;;;;5015401;28;89853;-89
2022/04/17 12:53:25;;;;;;;8.60;3.45;;;20.40;58.80;;;;;;5021246;28;87228;-90
2022/04/17 12:55:53;;;;;;;9.75;3.67;;;20.40;59.50;;;;;;5020111;28;87308;-85
2022/04/17 12:58:20;;;;;;;6.60;3.57;;;20.40;59.60;;;;;;5018817;28;86953;-91
2022/04/17 13:00:55;;;;;;;8.70;3.58;;;20.40;59.40;;;;;;5028698;28;89830;-86
2022/04/17 13:03:23;;;;;;;7.55;3.90;;;20.40;59.40;;;;;;5022901;28;86794;-87